sensor_id;sensor_type;location;lat;lon;timestamp;temperature;humidity
4406;DHT22;2216;53.806;11.598;2023-06-10T00:01:30;13.40;53.10
4406;DHT22;2216;53.806;11.598;2023-06-10T00:03:56;13.50;53.00
4406;DHT22;2216;53.806;11.598;2023-06-10T00:06:22;13.40;52.90
4406;DHT22;2216;53.806;11.598;2023-06-10T00:08:50;13.40;53.00
4406;DHT22;2216;53.806;11.598;2023-06-10T00:11:16;13.40;52.80
4406;DHT22;2216;53.806;11.598;2023-06-10T00:13:42;13.40;52.80
4406;DHT22;2216;53.806;11.598;2023-06-10T00:16:08;13.40;52.80
4406;DHT22;2216;53.806;11.598;2023-06-10T00:18:34;13.40;53.10
4406;DHT22;2216;53.806;11.598;2023-06-10T00:21:02;13.30;53.20
4406;DHT22;2216;53.806;11.598;2023-06-10T00:23:32;13.30;52.80
4406;DHT22;2216;53.806;11.598;2023-06-10T00:26:02;13.30;52.50
4406;DHT22;2216;53.806;11.598;2023-06-10T00:28:28;13.30;52.70
4406;DHT22;2216;53.806;11.598;2023-06-10T00:30:54;13.30;52.60
4406;DHT22;2216;53.806;11.598;2023-06-10T00:33:19;13.20;52.70
4406;DHT22;2216;53.806;11.598;2023-06-10T00:35:45;13.20;52.50
4406;DHT22;2216;53.806;11.598;2023-06-10T00:38:12;13.20;52.50
4406;DHT22;2216;53.806;11.598;2023-06-10T00:40:40;13.20;52.60
4406;DHT22;2216;53.806;11.598;2023-06-10T00:43:06;13.10;52.40
4406;DHT22;2216;53.806;11.598;2023-06-10T00:45:32;13.10;52.60
4406;DHT22;2216;53.806;11.598;2023-06-10T00:47:59;13.10;52.70
4406;DHT22;2216;53.806;11.598;2023-06-10T00:50:25;13.00;52.70
4406;DHT22;2216;53.806;11.598;2023-06-10T00:52:51;13.00;52.90
4406;DHT22;2216;53.806;11.598;2023-06-10T00:55:19;12.90;52.70
4406;DHT22;2216;53.806;11.598;2023-06-10T00:57:46;12.80;52.60
4406;DHT22;2216;53.806;11.598;2023-06-10T01:00:14;12.90;52.50
4406;DHT22;2216;53.806;11.598;2023-06-10T01:02:41;12.80;52.60
4406;DHT22;2216;53.806;11.598;2023-06-10T01:05:08;12.80;52.50
4406;DHT22;2216;53.806;11.598;2023-06-10T01:07:43;12.80;52.60
4406;DHT22;2216;53.806;11.598;2023-06-10T01:10:21;12.70;52.50
4406;DHT22;2216;53.806;11.598;2023-06-10T01:13:06;12.70;52.50
4406;DHT22;2216;53.806;11.598;2023-06-10T01:15:34;12.70;52.50
4406;DHT22;2216;53.806;11.598;2023-06-10T01:18:05;12.70;52.50
4406;DHT22;2216;53.806;11.598;2023-06-10T01:20:36;12.60;52.50
4406;DHT22;2216;53.806;11.598;2023-06-10T01:23:07;12.60;52.40
4406;DHT22;2216;53.806;11.598;2023-06-10T01:25:37;12.60;52.40
4406;DHT22;2216;53.806;11.598;2023-06-10T01:28:27;12.60;52.40
4406;DHT22;2216;53.806;11.598;2023-06-10T01:31:03;12.50;52.40
4406;DHT22;2216;53.806;11.598;2023-06-10T01:33:41;12.50;52.40
4406;DHT22;2216;53.806;11.598;2023-06-10T01:36:08;12.50;52.30
4406;DHT22;2216;53.806;11.598;2023-06-10T01:38:42;12.40;52.30
4406;DHT22;2216;53.806;11.598;2023-06-10T01:41:10;12.40;52.40
4406;DHT22;2216;53.806;11.598;2023-06-10T01:43:38;12.40;52.50
4406;DHT22;2216;53.806;11.598;2023-06-10T01:46:04;12.40;52.50
4406;DHT22;2216;53.806;11.598;2023-06-10T01:48:31;12.40;52.40
4406;DHT22;2216;53.806;11.598;2023-06-10T01:50:57;12.30;52.30
4406;DHT22;2216;53.806;11.598;2023-06-10T01:53:23;12.30;52.30
4406;DHT22;2216;53.806;11.598;2023-06-10T01:55:49;12.30;52.30
4406;DHT22;2216;53.806;11.598;2023-06-10T01:58:15;12.30;52.30
4406;DHT22;2216;53.806;11.598;2023-06-10T02:00:40;12.20;52.30
4406;DHT22;2216;53.806;11.598;2023-06-10T02:03:06;12.20;52.30
4406;DHT22;2216;53.806;11.598;2023-06-10T02:05:32;12.10;52.20
4406;DHT22;2216;53.806;11.598;2023-06-10T02:07:58;12.10;52.20
4406;DHT22;2216;53.806;11.598;2023-06-10T02:10:23;12.10;52.20
4406;DHT22;2216;53.806;11.598;2023-06-10T02:12:49;12.10;52.20
4406;DHT22;2216;53.806;11.598;2023-06-10T02:15:15;12.10;52.20
4406;DHT22;2216;53.806;11.598;2023-06-10T02:17:41;12.00;52.20
4406;DHT22;2216;53.806;11.598;2023-06-10T02:20:07;12.00;52.20
4406;DHT22;2216;53.806;11.598;2023-06-10T02:22:36;12.00;52.30
4406;DHT22;2216;53.806;11.598;2023-06-10T02:25:03;12.00;52.30
4406;DHT22;2216;53.806;11.598;2023-06-10T02:27:29;12.00;52.40
4406;DHT22;2216;53.806;11.598;2023-06-10T02:29:58;11.90;52.40
4406;DHT22;2216;53.806;11.598;2023-06-10T02:32:23;11.90;52.70
4406;DHT22;2216;53.806;11.598;2023-06-10T02:34:49;11.90;52.50
4406;DHT22;2216;53.806;11.598;2023-06-10T02:37:15;11.90;52.50
4406;DHT22;2216;53.806;11.598;2023-06-10T02:39:42;11.90;52.50
4406;DHT22;2216;53.806;11.598;2023-06-10T02:42:07;11.90;52.50
4406;DHT22;2216;53.806;11.598;2023-06-10T02:44:33;11.90;52.90
4406;DHT22;2216;53.806;11.598;2023-06-10T02:46:59;11.90;53.00
4406;DHT22;2216;53.806;11.598;2023-06-10T02:49:25;11.90;53.60
4406;DHT22;2216;53.806;11.598;2023-06-10T02:51:54;12.00;53.00
4406;DHT22;2216;53.806;11.598;2023-06-10T02:54:22;12.00;52.90
4406;DHT22;2216;53.806;11.598;2023-06-10T02:56:51;12.00;52.90
4406;DHT22;2216;53.806;11.598;2023-06-10T02:59:18;12.00;53.10
4406;DHT22;2216;53.806;11.598;2023-06-10T03:01:44;12.00;53.00
4406;DHT22;2216;53.806;11.598;2023-06-10T03:04:11;12.10;53.20
4406;DHT22;2216;53.806;11.598;2023-06-10T03:06:39;12.10;53.50
4406;DHT22;2216;53.806;11.598;2023-06-10T03:09:06;12.10;53.40
4406;DHT22;2216;53.806;11.598;2023-06-10T03:11:35;12.10;53.40
4406;DHT22;2216;53.806;11.598;2023-06-10T03:14:00;12.20;53.30
4406;DHT22;2216;53.806;11.598;2023-06-10T03:16:26;12.20;53.40
4406;DHT22;2216;53.806;11.598;2023-06-10T03:18:52;12.20;53.40
4406;DHT22;2216;53.806;11.598;2023-06-10T03:21:18;12.20;53.50
4406;DHT22;2216;53.806;11.598;2023-06-10T03:23:45;12.30;53.40
4406;DHT22;2216;53.806;11.598;2023-06-10T03:26:11;12.30;53.60
4406;DHT22;2216;53.806;11.598;2023-06-10T03:28:39;12.40;53.60
4406;DHT22;2216;53.806;11.598;2023-06-10T03:31:05;12.40;53.70
4406;DHT22;2216;53.806;11.598;2023-06-10T03:33:31;12.50;53.70
4406;DHT22;2216;53.806;11.598;2023-06-10T03:35:56;12.50;53.60
4406;DHT22;2216;53.806;11.598;2023-06-10T03:38:22;12.80;53.70
4406;DHT22;2216;53.806;11.598;2023-06-10T03:40:48;12.80;54.00
4406;DHT22;2216;53.806;11.598;2023-06-10T03:43:13;12.70;54.00
4406;DHT22;2216;53.806;11.598;2023-06-10T03:45:39;12.80;54.50
4406;DHT22;2216;53.806;11.598;2023-06-10T03:48:06;12.80;54.30
4406;DHT22;2216;53.806;11.598;2023-06-10T03:50:34;12.90;54.80
4406;DHT22;2216;53.806;11.598;2023-06-10T03:53:01;13.00;55.00
4406;DHT22;2216;53.806;11.598;2023-06-10T03:55:27;13.00;55.10
4406;DHT22;2216;53.806;11.598;2023-06-10T03:57:53;13.10;55.60
4406;DHT22;2216;53.806;11.598;2023-06-10T04:00:18;13.10;54.60
4406;DHT22;2216;53.806;11.598;2023-06-10T04:02:46;13.30;54.80
4406;DHT22;2216;53.806;11.598;2023-06-10T04:05:15;13.30;55.40
4406;DHT22;2216;53.806;11.598;2023-06-10T04:07:42;13.40;55.00
4406;DHT22;2216;53.806;11.598;2023-06-10T04:10:10;13.50;55.30
4406;DHT22;2216;53.806;11.598;2023-06-10T04:12:36;13.60;55.30
4406;DHT22;2216;53.806;11.598;2023-06-10T04:15:04;13.60;54.80
4406;DHT22;2216;53.806;11.598;2023-06-10T04:17:30;13.70;54.70
4406;DHT22;2216;53.806;11.598;2023-06-10T04:19:56;13.80;55.20
4406;DHT22;2216;53.806;11.598;2023-06-10T04:22:23;13.90;55.10
4406;DHT22;2216;53.806;11.598;2023-06-10T04:24:49;13.90;54.50
4406;DHT22;2216;53.806;11.598;2023-06-10T04:27:15;14.00;54.70
4406;DHT22;2216;53.806;11.598;2023-06-10T04:29:41;14.10;54.70
4406;DHT22;2216;53.806;11.598;2023-06-10T04:32:07;14.20;55.10
4406;DHT22;2216;53.806;11.598;2023-06-10T04:34:33;14.30;55.00
4406;DHT22;2216;53.806;11.598;2023-06-10T04:36:59;14.40;55.10
4406;DHT22;2216;53.806;11.598;2023-06-10T04:39:25;14.50;54.60
4406;DHT22;2216;53.806;11.598;2023-06-10T04:41:51;14.60;54.70
4406;DHT22;2216;53.806;11.598;2023-06-10T04:44:17;14.70;55.00
4406;DHT22;2216;53.806;11.598;2023-06-10T04:46:42;14.80;54.80
4406;DHT22;2216;53.806;11.598;2023-06-10T04:49:08;14.90;54.60
4406;DHT22;2216;53.806;11.598;2023-06-10T04:51:34;15.00;54.70
4406;DHT22;2216;53.806;11.598;2023-06-10T04:53:59;15.10;54.50
4406;DHT22;2216;53.806;11.598;2023-06-10T04:56:29;15.20;54.70
4406;DHT22;2216;53.806;11.598;2023-06-10T04:58:56;15.30;54.40
4406;DHT22;2216;53.806;11.598;2023-06-10T05:01:22;15.50;54.50
4406;DHT22;2216;53.806;11.598;2023-06-10T05:03:48;15.60;54.60
4406;DHT22;2216;53.806;11.598;2023-06-10T05:06:14;15.70;54.80
4406;DHT22;2216;53.806;11.598;2023-06-10T05:08:40;15.80;54.50
4406;DHT22;2216;53.806;11.598;2023-06-10T05:11:06;15.90;54.70
4406;DHT22;2216;53.806;11.598;2023-06-10T05:13:32;16.10;54.70
4406;DHT22;2216;53.806;11.598;2023-06-10T05:15:58;16.10;54.60
4406;DHT22;2216;53.806;11.598;2023-06-10T05:18:24;16.20;54.40
4406;DHT22;2216;53.806;11.598;2023-06-10T05:20:50;16.30;54.80
4406;DHT22;2216;53.806;11.598;2023-06-10T05:23:15;16.40;54.40
4406;DHT22;2216;53.806;11.598;2023-06-10T05:25:41;16.50;54.20
4406;DHT22;2216;53.806;11.598;2023-06-10T05:28:08;16.60;54.20
4406;DHT22;2216;53.806;11.598;2023-06-10T05:30:35;16.70;54.40
4406;DHT22;2216;53.806;11.598;2023-06-10T05:33:02;16.80;54.20
4406;DHT22;2216;53.806;11.598;2023-06-10T05:35:28;16.90;54.40
4406;DHT22;2216;53.806;11.598;2023-06-10T05:37:54;17.00;54.30
4406;DHT22;2216;53.806;11.598;2023-06-10T05:40:20;17.10;54.20
4406;DHT22;2216;53.806;11.598;2023-06-10T05:42:45;17.10;54.30
4406;DHT22;2216;53.806;11.598;2023-06-10T05:45:11;17.20;54.00
4406;DHT22;2216;53.806;11.598;2023-06-10T05:47:37;17.30;54.20
4406;DHT22;2216;53.806;11.598;2023-06-10T05:50:02;17.30;54.20
4406;DHT22;2216;53.806;11.598;2023-06-10T05:52:33;17.40;54.10
4406;DHT22;2216;53.806;11.598;2023-06-10T05:54:59;17.50;54.30
4406;DHT22;2216;53.806;11.598;2023-06-10T05:57:25;17.60;54.10
4406;DHT22;2216;53.806;11.598;2023-06-10T05:59:51;17.70;54.30
4406;DHT22;2216;53.806;11.598;2023-06-10T06:02:17;17.80;54.10
4406;DHT22;2216;53.806;11.598;2023-06-10T06:04:42;17.90;54.40
4406;DHT22;2216;53.806;11.598;2023-06-10T06:07:08;18.00;54.30
4406;DHT22;2216;53.806;11.598;2023-06-10T06:09:34;18.00;54.20
4406;DHT22;2216;53.806;11.598;2023-06-10T06:12:00;18.10;54.40
4406;DHT22;2216;53.806;11.598;2023-06-10T06:14:25;18.20;54.70
4406;DHT22;2216;53.806;11.598;2023-06-10T06:16:51;18.20;54.20
4406;DHT22;2216;53.806;11.598;2023-06-10T06:19:17;18.20;54.10
4406;DHT22;2216;53.806;11.598;2023-06-10T06:21:42;18.30;54.50
4406;DHT22;2216;53.806;11.598;2023-06-10T06:24:08;18.30;54.30
4406;DHT22;2216;53.806;11.598;2023-06-10T06:26:33;18.40;54.10
4406;DHT22;2216;53.806;11.598;2023-06-10T06:28:59;18.50;54.20
4406;DHT22;2216;53.806;11.598;2023-06-10T06:31:25;18.60;54.20
4406;DHT22;2216;53.806;11.598;2023-06-10T06:33:51;18.70;54.10
4406;DHT22;2216;53.806;11.598;2023-06-10T06:36:16;18.80;54.20
4406;DHT22;2216;53.806;11.598;2023-06-10T06:38:42;18.80;54.20
4406;DHT22;2216;53.806;11.598;2023-06-10T06:41:07;18.90;54.00
4406;DHT22;2216;53.806;11.598;2023-06-10T06:43:34;19.00;54.10
4406;DHT22;2216;53.806;11.598;2023-06-10T06:45:59;19.10;54.10
4406;DHT22;2216;53.806;11.598;2023-06-10T06:48:25;19.20;54.10
4406;DHT22;2216;53.806;11.598;2023-06-10T06:50:51;19.30;54.10
4406;DHT22;2216;53.806;11.598;2023-06-10T06:53:16;19.40;54.40
4406;DHT22;2216;53.806;11.598;2023-06-10T06:55:42;19.40;54.00
4406;DHT22;2216;53.806;11.598;2023-06-10T06:58:08;19.40;54.00
4406;DHT22;2216;53.806;11.598;2023-06-10T07:00:33;19.50;54.00
4406;DHT22;2216;53.806;11.598;2023-06-10T07:02:59;19.60;54.20
4406;DHT22;2216;53.806;11.598;2023-06-10T07:05:25;19.60;54.00
4406;DHT22;2216;53.806;11.598;2023-06-10T07:07:53;19.70;54.30
4406;DHT22;2216;53.806;11.598;2023-06-10T07:10:24;19.80;54.10
4406;DHT22;2216;53.806;11.598;2023-06-10T07:12:51;19.90;54.00
4406;DHT22;2216;53.806;11.598;2023-06-10T07:15:16;20.00;54.10
4406;DHT22;2216;53.806;11.598;2023-06-10T07:17:43;20.10;53.90
4406;DHT22;2216;53.806;11.598;2023-06-10T07:20:09;20.30;54.00
4406;DHT22;2216;53.806;11.598;2023-06-10T07:22:35;20.40;54.00
4406;DHT22;2216;53.806;11.598;2023-06-10T07:25:01;20.50;53.80
4406;DHT22;2216;53.806;11.598;2023-06-10T07:27:26;20.60;53.90
4406;DHT22;2216;53.806;11.598;2023-06-10T07:29:52;20.70;53.60
4406;DHT22;2216;53.806;11.598;2023-06-10T07:32:19;20.80;53.70
4406;DHT22;2216;53.806;11.598;2023-06-10T07:34:47;20.90;53.70
4406;DHT22;2216;53.806;11.598;2023-06-10T07:37:13;21.00;53.70
4406;DHT22;2216;53.806;11.598;2023-06-10T07:39:38;21.10;53.60
4406;DHT22;2216;53.806;11.598;2023-06-10T07:42:05;21.20;53.60
4406;DHT22;2216;53.806;11.598;2023-06-10T07:44:31;21.30;53.60
4406;DHT22;2216;53.806;11.598;2023-06-10T07:46:57;21.40;53.50
4406;DHT22;2216;53.806;11.598;2023-06-10T07:49:23;21.50;53.60
4406;DHT22;2216;53.806;11.598;2023-06-10T07:51:50;21.60;53.50
4406;DHT22;2216;53.806;11.598;2023-06-10T07:54:16;21.70;53.40
4406;DHT22;2216;53.806;11.598;2023-06-10T07:56:41;21.80;53.30
4406;DHT22;2216;53.806;11.598;2023-06-10T07:59:07;21.90;53.30
4406;DHT22;2216;53.806;11.598;2023-06-10T08:01:33;22.10;53.30
4406;DHT22;2216;53.806;11.598;2023-06-10T08:04:01;22.10;53.20
4406;DHT22;2216;53.806;11.598;2023-06-10T08:06:26;22.20;53.10
4406;DHT22;2216;53.806;11.598;2023-06-10T08:08:52;22.30;53.00
4406;DHT22;2216;53.806;11.598;2023-06-10T08:11:18;22.40;53.00
4406;DHT22;2216;53.806;11.598;2023-06-10T08:13:43;22.50;53.00
4406;DHT22;2216;53.806;11.598;2023-06-10T08:16:09;22.60;52.90
4406;DHT22;2216;53.806;11.598;2023-06-10T08:18:35;22.70;52.90
4406;DHT22;2216;53.806;11.598;2023-06-10T08:21:01;22.80;52.80
4406;DHT22;2216;53.806;11.598;2023-06-10T08:23:26;22.90;53.40
4406;DHT22;2216;53.806;11.598;2023-06-10T08:25:52;23.00;52.90
4406;DHT22;2216;53.806;11.598;2023-06-10T08:28:18;23.10;52.80
4406;DHT22;2216;53.806;11.598;2023-06-10T08:30:44;23.30;52.60
4406;DHT22;2216;53.806;11.598;2023-06-10T08:33:10;23.30;52.40
4406;DHT22;2216;53.806;11.598;2023-06-10T08:35:35;23.40;52.40
4406;DHT22;2216;53.806;11.598;2023-06-10T08:38:01;23.40;52.40
4406;DHT22;2216;53.806;11.598;2023-06-10T08:40:27;23.50;52.50
4406;DHT22;2216;53.806;11.598;2023-06-10T08:43:17;23.70;52.70
4406;DHT22;2216;53.806;11.598;2023-06-10T08:45:48;23.80;52.50
4406;DHT22;2216;53.806;11.598;2023-06-10T08:48:17;23.90;52.40
4406;DHT22;2216;53.806;11.598;2023-06-10T08:50:44;24.10;52.30
4406;DHT22;2216;53.806;11.598;2023-06-10T08:53:14;24.20;52.20
4406;DHT22;2216;53.806;11.598;2023-06-10T08:55:48;24.20;52.10
4406;DHT22;2216;53.806;11.598;2023-06-10T08:58:17;24.30;52.10
4406;DHT22;2216;53.806;11.598;2023-06-10T09:00:44;24.40;51.90
4406;DHT22;2216;53.806;11.598;2023-06-10T09:03:10;24.40;51.90
4406;DHT22;2216;53.806;11.598;2023-06-10T09:05:37;24.50;51.70
4406;DHT22;2216;53.806;11.598;2023-06-10T09:08:04;24.60;51.80
4406;DHT22;2216;53.806;11.598;2023-06-10T09:10:31;24.70;51.90
4406;DHT22;2216;53.806;11.598;2023-06-10T09:12:57;24.70;51.80
4406;DHT22;2216;53.806;11.598;2023-06-10T09:15:23;24.90;51.80
4406;DHT22;2216;53.806;11.598;2023-06-10T09:17:49;25.00;51.60
4406;DHT22;2216;53.806;11.598;2023-06-10T09:20:16;25.00;51.40
4406;DHT22;2216;53.806;11.598;2023-06-10T09:22:42;25.20;51.40
4406;DHT22;2216;53.806;11.598;2023-06-10T09:25:10;25.20;51.10
4406;DHT22;2216;53.806;11.598;2023-06-10T09:27:48;25.20;51.20
4406;DHT22;2216;53.806;11.598;2023-06-10T09:32:56;25.40;51.10
4406;DHT22;2216;53.806;11.598;2023-06-10T09:35:23;25.40;51.20
4406;DHT22;2216;53.806;11.598;2023-06-10T09:37:54;25.50;51.20
4406;DHT22;2216;53.806;11.598;2023-06-10T09:40:20;25.60;51.30
4406;DHT22;2216;53.806;11.598;2023-06-10T09:42:46;25.70;51.30
4406;DHT22;2216;53.806;11.598;2023-06-10T09:45:22;25.90;51.30
4406;DHT22;2216;53.806;11.598;2023-06-10T09:47:51;26.00;51.20
4406;DHT22;2216;53.806;11.598;2023-06-10T09:50:17;26.10;51.00
4406;DHT22;2216;53.806;11.598;2023-06-10T09:52:45;26.00;50.70
4406;DHT22;2216;53.806;11.598;2023-06-10T09:55:11;26.20;50.70
4406;DHT22;2216;53.806;11.598;2023-06-10T09:57:37;26.50;50.90
4406;DHT22;2216;53.806;11.598;2023-06-10T10:00:05;26.40;50.80
4406;DHT22;2216;53.806;11.598;2023-06-10T10:02:46;26.50;50.50
4406;DHT22;2216;53.806;11.598;2023-06-10T10:05:17;26.60;50.40
4406;DHT22;2216;53.806;11.598;2023-06-10T10:07:45;26.40;50.30
4406;DHT22;2216;53.806;11.598;2023-06-10T10:10:12;26.40;50.10
4406;DHT22;2216;53.806;11.598;2023-06-10T10:12:39;26.40;50.10
4406;DHT22;2216;53.806;11.598;2023-06-10T10:15:08;26.50;50.10
4406;DHT22;2216;53.806;11.598;2023-06-10T10:17:39;26.60;50.10
4406;DHT22;2216;53.806;11.598;2023-06-10T10:20:07;26.70;50.40
4406;DHT22;2216;53.806;11.598;2023-06-10T10:22:41;26.70;50.30
4406;DHT22;2216;53.806;11.598;2023-06-10T10:25:17;26.80;50.40
4406;DHT22;2216;53.806;11.598;2023-06-10T10:28:13;26.90;50.20
4406;DHT22;2216;53.806;11.598;2023-06-10T10:30:49;27.00;50.20
4406;DHT22;2216;53.806;11.598;2023-06-10T10:33:19;27.10;49.90
4406;DHT22;2216;53.806;11.598;2023-06-10T10:35:47;27.10;49.40
4406;DHT22;2216;53.806;11.598;2023-06-10T10:38:13;27.10;49.80
4406;DHT22;2216;53.806;11.598;2023-06-10T10:40:39;27.30;49.30
4406;DHT22;2216;53.806;11.598;2023-06-10T10:43:06;27.30;49.10
4406;DHT22;2216;53.806;11.598;2023-06-10T10:45:34;27.10;49.10
4406;DHT22;2216;53.806;11.598;2023-06-10T10:48:05;27.30;49.00
4406;DHT22;2216;53.806;11.598;2023-06-10T10:50:37;27.30;49.30
4406;DHT22;2216;53.806;11.598;2023-06-10T10:53:04;27.30;48.50
4406;DHT22;2216;53.806;11.598;2023-06-10T10:55:31;27.40;49.40
4406;DHT22;2216;53.806;11.598;2023-06-10T10:58:05;27.40;50.20
4406;DHT22;2216;53.806;11.598;2023-06-10T11:00:36;27.50;49.40
4406;DHT22;2216;53.806;11.598;2023-06-10T11:05:36;27.70;49.30
4406;DHT22;2216;53.806;11.598;2023-06-10T11:08:04;27.80;49.00
4406;DHT22;2216;53.806;11.598;2023-06-10T11:10:31;27.80;49.10
4406;DHT22;2216;53.806;11.598;2023-06-10T11:13:14;27.70;48.90
4406;DHT22;2216;53.806;11.598;2023-06-10T11:15:45;27.90;49.10
4406;DHT22;2216;53.806;11.598;2023-06-10T11:21:04;28.00;48.70
4406;DHT22;2216;53.806;11.598;2023-06-10T11:23:34;28.00;48.90
4406;DHT22;2216;53.806;11.598;2023-06-10T11:31:28;28.30;48.70
4406;DHT22;2216;53.806;11.598;2023-06-10T11:34:03;28.30;48.70
4406;DHT22;2216;53.806;11.598;2023-06-10T11:36:30;28.30;48.50
4406;DHT22;2216;53.806;11.598;2023-06-10T11:39:02;28.30;48.30
4406;DHT22;2216;53.806;11.598;2023-06-10T11:41:30;28.30;48.40
4406;DHT22;2216;53.806;11.598;2023-06-10T11:44:02;28.30;48.30
4406;DHT22;2216;53.806;11.598;2023-06-10T11:46:39;28.30;47.80
4406;DHT22;2216;53.806;11.598;2023-06-10T11:49:06;28.30;48.30
4406;DHT22;2216;53.806;11.598;2023-06-10T11:51:39;28.20;48.00
4406;DHT22;2216;53.806;11.598;2023-06-10T11:54:08;28.30;48.00
4406;DHT22;2216;53.806;11.598;2023-06-10T11:56:34;28.40;48.00
4406;DHT22;2216;53.806;11.598;2023-06-10T11:59:04;28.50;48.40
4406;DHT22;2216;53.806;11.598;2023-06-10T12:01:34;28.40;48.10
4406;DHT22;2216;53.806;11.598;2023-06-10T12:04:08;28.30;47.40
4406;DHT22;2216;53.806;11.598;2023-06-10T12:09:27;28.40;48.40
4406;DHT22;2216;53.806;11.598;2023-06-10T12:12:03;28.30;47.40
4406;DHT22;2216;53.806;11.598;2023-06-10T12:14:56;28.30;47.50
4406;DHT22;2216;53.806;11.598;2023-06-10T12:20:03;28.40;47.70
4406;DHT22;2216;53.806;11.598;2023-06-10T12:22:41;28.40;47.40
4406;DHT22;2216;53.806;11.598;2023-06-10T12:25:09;28.30;47.70
4406;DHT22;2216;53.806;11.598;2023-06-10T12:27:36;28.40;47.60
4406;DHT22;2216;53.806;11.598;2023-06-10T12:30:04;28.40;47.50
4406;DHT22;2216;53.806;11.598;2023-06-10T12:32:39;28.50;47.70
4406;DHT22;2216;53.806;11.598;2023-06-10T12:35:09;28.60;47.60
4406;DHT22;2216;53.806;11.598;2023-06-10T12:37:41;28.60;47.20
4406;DHT22;2216;53.806;11.598;2023-06-10T12:40:07;28.60;47.20
4406;DHT22;2216;53.806;11.598;2023-06-10T12:42:35;28.50;47.00
4406;DHT22;2216;53.806;11.598;2023-06-10T12:45:03;28.50;47.00
4406;DHT22;2216;53.806;11.598;2023-06-10T12:47:33;28.50;47.00
4406;DHT22;2216;53.806;11.598;2023-06-10T12:50:01;28.40;46.70
4406;DHT22;2216;53.806;11.598;2023-06-10T12:52:27;28.40;46.70
4406;DHT22;2216;53.806;11.598;2023-06-10T12:54:54;28.30;47.00
4406;DHT22;2216;53.806;11.598;2023-06-10T12:57:23;28.30;46.90
4406;DHT22;2216;53.806;11.598;2023-06-10T12:59:48;28.20;47.10
4406;DHT22;2216;53.806;11.598;2023-06-10T13:02:21;28.30;47.10
4406;DHT22;2216;53.806;11.598;2023-06-10T13:04:49;28.30;47.00
4406;DHT22;2216;53.806;11.598;2023-06-10T13:07:16;28.30;46.70
4406;DHT22;2216;53.806;11.598;2023-06-10T13:09:42;28.30;46.90
4406;DHT22;2216;53.806;11.598;2023-06-10T13:12:08;28.30;47.00
4406;DHT22;2216;53.806;11.598;2023-06-10T13:14:35;28.20;47.10
4406;DHT22;2216;53.806;11.598;2023-06-10T13:17:06;28.30;47.30
4406;DHT22;2216;53.806;11.598;2023-06-10T13:19:32;28.30;47.30
4406;DHT22;2216;53.806;11.598;2023-06-10T13:21:58;28.40;47.10
4406;DHT22;2216;53.806;11.598;2023-06-10T13:24:24;28.30;46.80
4406;DHT22;2216;53.806;11.598;2023-06-10T13:26:50;28.30;46.90
4406;DHT22;2216;53.806;11.598;2023-06-10T13:29:16;28.40;47.00
4406;DHT22;2216;53.806;11.598;2023-06-10T13:31:41;28.30;47.00
4406;DHT22;2216;53.806;11.598;2023-06-10T13:34:08;28.30;46.90
4406;DHT22;2216;53.806;11.598;2023-06-10T13:36:33;28.30;47.10
4406;DHT22;2216;53.806;11.598;2023-06-10T13:39:00;28.20;46.90
4406;DHT22;2216;53.806;11.598;2023-06-10T13:41:25;28.20;46.90
4406;DHT22;2216;53.806;11.598;2023-06-10T13:43:54;28.40;47.00
4406;DHT22;2216;53.806;11.598;2023-06-10T13:46:20;28.20;46.80
4406;DHT22;2216;53.806;11.598;2023-06-10T13:48:47;28.10;46.80
4406;DHT22;2216;53.806;11.598;2023-06-10T13:51:12;28.10;46.90
4406;DHT22;2216;53.806;11.598;2023-06-10T13:53:38;28.20;47.00
4406;DHT22;2216;53.806;11.598;2023-06-10T13:56:04;28.00;46.90
4406;DHT22;2216;53.806;11.598;2023-06-10T13:58:29;28.10;47.00
4406;DHT22;2216;53.806;11.598;2023-06-10T14:00:55;28.00;46.80
4406;DHT22;2216;53.806;11.598;2023-06-10T14:03:21;28.00;46.90
4406;DHT22;2216;53.806;11.598;2023-06-10T14:05:47;27.90;46.90
4406;DHT22;2216;53.806;11.598;2023-06-10T14:08:12;27.90;47.00
4406;DHT22;2216;53.806;11.598;2023-06-10T14:10:39;27.90;46.90
4406;DHT22;2216;53.806;11.598;2023-06-10T14:13:04;27.80;46.80
4406;DHT22;2216;53.806;11.598;2023-06-10T14:15:31;28.00;47.10
4406;DHT22;2216;53.806;11.598;2023-06-10T14:17:57;27.80;46.90
4406;DHT22;2216;53.806;11.598;2023-06-10T14:20:23;27.70;47.00
4406;DHT22;2216;53.806;11.598;2023-06-10T14:22:50;27.80;47.00
4406;DHT22;2216;53.806;11.598;2023-06-10T14:25:16;27.80;47.00
4406;DHT22;2216;53.806;11.598;2023-06-10T14:27:42;27.80;47.20
4406;DHT22;2216;53.806;11.598;2023-06-10T14:30:08;27.80;47.10
4406;DHT22;2216;53.806;11.598;2023-06-10T14:32:34;27.80;47.10
4406;DHT22;2216;53.806;11.598;2023-06-10T14:35:00;27.80;47.20
4406;DHT22;2216;53.806;11.598;2023-06-10T14:37:26;27.80;47.10
4406;DHT22;2216;53.806;11.598;2023-06-10T14:39:51;27.80;46.90
4406;DHT22;2216;53.806;11.598;2023-06-10T14:42:17;27.80;46.80
4406;DHT22;2216;53.806;11.598;2023-06-10T14:44:43;27.80;46.60
4406;DHT22;2216;53.806;11.598;2023-06-10T14:47:08;27.80;46.60
4406;DHT22;2216;53.806;11.598;2023-06-10T14:49:34;27.70;46.70
4406;DHT22;2216;53.806;11.598;2023-06-10T14:52:00;27.70;46.70
4406;DHT22;2216;53.806;11.598;2023-06-10T14:54:25;27.70;46.80
4406;DHT22;2216;53.806;11.598;2023-06-10T14:56:51;27.70;46.60
4406;DHT22;2216;53.806;11.598;2023-06-10T14:59:17;27.60;46.30
4406;DHT22;2216;53.806;11.598;2023-06-10T15:01:42;27.50;46.50
4406;DHT22;2216;53.806;11.598;2023-06-10T15:04:08;27.50;46.20
4406;DHT22;2216;53.806;11.598;2023-06-10T15:06:34;27.20;46.20
4406;DHT22;2216;53.806;11.598;2023-06-10T15:08:59;27.40;46.40
4406;DHT22;2216;53.806;11.598;2023-06-10T15:11:25;27.40;46.30
4406;DHT22;2216;53.806;11.598;2023-06-10T15:13:51;27.40;46.40
4406;DHT22;2216;53.806;11.598;2023-06-10T15:16:16;27.40;46.30
4406;DHT22;2216;53.806;11.598;2023-06-10T15:18:42;27.30;46.20
4406;DHT22;2216;53.806;11.598;2023-06-10T15:21:09;27.20;46.10
4406;DHT22;2216;53.806;11.598;2023-06-10T15:23:35;27.10;46.00
4406;DHT22;2216;53.806;11.598;2023-06-10T15:26:00;27.00;46.20
4406;DHT22;2216;53.806;11.598;2023-06-10T15:28:26;27.00;46.20
4406;DHT22;2216;53.806;11.598;2023-06-10T15:30:52;27.00;46.40
4406;DHT22;2216;53.806;11.598;2023-06-10T15:33:17;26.90;46.30
4406;DHT22;2216;53.806;11.598;2023-06-10T15:35:43;26.90;46.30
4406;DHT22;2216;53.806;11.598;2023-06-10T15:38:09;26.80;46.10
4406;DHT22;2216;53.806;11.598;2023-06-10T15:40:34;26.80;46.20
4406;DHT22;2216;53.806;11.598;2023-06-10T15:43:01;26.70;46.30
4406;DHT22;2216;53.806;11.598;2023-06-10T15:45:26;26.70;46.30
4406;DHT22;2216;53.806;11.598;2023-06-10T15:47:52;26.70;46.20
4406;DHT22;2216;53.806;11.598;2023-06-10T15:50:18;26.60;46.40
4406;DHT22;2216;53.806;11.598;2023-06-10T15:52:43;26.60;46.30
4406;DHT22;2216;53.806;11.598;2023-06-10T15:55:09;26.60;46.10
4406;DHT22;2216;53.806;11.598;2023-06-10T15:57:35;26.50;45.90
4406;DHT22;2216;53.806;11.598;2023-06-10T16:00:00;26.50;45.90
4406;DHT22;2216;53.806;11.598;2023-06-10T16:02:26;26.40;46.00
4406;DHT22;2216;53.806;11.598;2023-06-10T16:04:52;26.40;46.00